createdAt,value
2023-01-12T00:00:37.929Z,11.30
2023-01-12T00:03:06.205Z,11.30
2023-01-12T00:05:35.967Z,11.30
2023-01-12T00:08:05.393Z,11.30
2023-01-12T00:10:33.828Z,11.30
2023-01-12T00:13:03.732Z,11.30
2023-01-12T00:15:58.640Z,11.30
2023-01-12T00:18:26.896Z,11.30
2023-01-12T00:20:55.105Z,11.30
2023-01-12T00:23:23.788Z,11.30
2023-01-12T00:25:53.053Z,11.30
2023-01-12T00:28:22.967Z,11.30
2023-01-12T00:30:51.304Z,11.30
2023-01-12T00:33:20.220Z,11.30
2023-01-12T00:35:48.705Z,11.30
2023-01-12T00:38:17.026Z,11.30
2023-01-12T00:40:45.291Z,11.30
2023-01-12T00:43:30.921Z,11.30
2023-01-12T00:46:00.539Z,11.30
2023-01-12T00:48:28.780Z,11.20
2023-01-12T00:50:56.969Z,11.30
2023-01-12T00:53:25.259Z,11.20
2023-01-12T00:55:53.423Z,11.20
2023-01-12T00:58:21.790Z,11.20
2023-01-12T01:00:50.199Z,11.20
2023-01-12T01:03:19.926Z,11.20
2023-01-12T01:05:48.239Z,11.20
2023-01-12T01:08:17.596Z,11.20
2023-01-12T01:10:46.869Z,11.20
2023-01-12T01:13:15.216Z,11.20
2023-01-12T01:15:43.881Z,11.20
2023-01-12T01:18:12.170Z,11.20
2023-01-12T01:20:43.383Z,11.20
2023-01-12T01:23:11.648Z,11.20
2023-01-12T01:25:39.968Z,11.20
2023-01-12T01:28:08.198Z,11.20
2023-01-12T01:30:36.530Z,11.20
2023-01-12T01:33:05.220Z,11.20
2023-01-12T01:35:33.613Z,11.20
2023-01-12T01:38:03.445Z,11.20
2023-01-12T01:40:32.215Z,11.20
2023-01-12T01:43:01.097Z,11.20
2023-01-12T01:45:30.106Z,11.20
2023-01-12T01:48:01.695Z,11.20
2023-01-12T01:50:33.580Z,11.20
2023-01-12T01:53:06.256Z,11.20
2023-01-12T01:55:38.242Z,11.20
2023-01-12T01:58:11.417Z,11.20
2023-01-12T02:00:40.304Z,11.20
2023-01-12T02:03:10.380Z,11.30
2023-01-12T02:05:40.796Z,11.30
2023-01-12T02:08:17.228Z,11.30
2023-01-12T02:10:46.267Z,11.30
2023-01-12T02:13:32.494Z,11.30
2023-01-12T02:19:21.961Z,11.30
2023-01-12T02:22:36.951Z,11.30
2023-01-12T02:25:26.399Z,11.30
2023-01-12T02:28:22.783Z,11.30
2023-01-12T02:31:27.988Z,11.30
2023-01-12T02:34:05.832Z,11.30
2023-01-12T02:36:43.671Z,11.30
2023-01-12T02:39:22.097Z,11.40
2023-01-12T02:42:15.947Z,11.30
2023-01-12T02:44:53.126Z,11.30
2023-01-12T02:47:28.651Z,11.30
2023-01-12T02:50:02.953Z,11.30
2023-01-12T02:52:34.701Z,11.30
2023-01-12T02:55:05.902Z,11.30
2023-01-12T02:57:37.765Z,11.30
2023-01-12T03:00:09.408Z,11.30
2023-01-12T03:02:39.803Z,11.30
2023-01-12T03:05:09.688Z,11.30
2023-01-12T03:07:47.928Z,11.40
2023-01-12T03:10:47.066Z,11.40
2023-01-12T03:13:17.779Z,11.30
2023-01-12T03:15:49.747Z,11.30
2023-01-12T03:18:28.426Z,11.30
2023-01-12T03:21:02.128Z,11.30
2023-01-12T03:23:38.805Z,11.30
2023-01-12T03:26:10.625Z,11.30
2023-01-12T03:28:43.235Z,11.30
2023-01-12T03:31:13.217Z,11.30
2023-01-12T03:33:44.672Z,11.30
2023-01-12T03:36:20.348Z,11.30
2023-01-12T03:39:01.645Z,11.30
2023-01-12T03:41:38.851Z,11.30
2023-01-12T03:44:13.738Z,11.30
2023-01-12T03:46:45.680Z,11.30
2023-01-12T03:49:24.449Z,11.30
2023-01-12T03:51:55.176Z,11.40
2023-01-12T03:54:24.695Z,11.30
2023-01-12T03:56:54.664Z,11.30
2023-01-12T03:59:24.018Z,11.30
2023-01-12T04:01:52.556Z,11.30
2023-01-12T04:04:23.752Z,11.30
2023-01-12T04:06:52.229Z,11.30
2023-01-12T04:09:22.894Z,11.30
2023-01-12T04:12:08.801Z,11.30
2023-01-12T04:14:37.443Z,11.30
2023-01-12T04:17:05.868Z,11.30
2023-01-12T04:19:35.636Z,11.30
2023-01-12T04:22:21.138Z,11.30
2023-01-12T04:24:49.564Z,11.30
2023-01-12T04:27:19.007Z,11.30
2023-01-12T04:29:47.276Z,11.30
2023-01-12T04:32:15.552Z,11.30
2023-01-12T04:34:45.961Z,11.30
2023-01-12T04:37:14.315Z,11.30
2023-01-12T04:39:42.551Z,11.30
2023-01-12T04:42:30.985Z,11.30
2023-01-12T04:44:59.827Z,11.30
2023-01-12T04:47:28.114Z,11.30
2023-01-12T04:49:57.724Z,11.30
2023-01-12T04:52:26.336Z,11.20
2023-01-12T04:54:56.737Z,11.30
2023-01-12T04:57:25.265Z,11.30
2023-01-12T04:59:53.505Z,11.30
2023-01-12T05:02:21.727Z,11.20
2023-01-12T05:04:50.977Z,11.30
2023-01-12T05:07:22.224Z,11.20
2023-01-12T05:10:08.391Z,11.20
2023-01-12T05:12:37.047Z,11.30
2023-01-12T05:15:19.092Z,11.20
2023-01-12T05:17:49.395Z,11.20
2023-01-12T05:20:19.996Z,11.20
2023-01-12T05:22:51.932Z,11.20
2023-01-12T05:25:24.989Z,11.20
2023-01-12T05:27:58.052Z,11.20
2023-01-12T05:30:32.246Z,11.20
2023-01-12T05:33:03.767Z,11.20
2023-01-12T05:35:33.083Z,11.20
2023-01-12T05:38:06.018Z,11.20
2023-01-12T05:40:39.551Z,11.20
2023-01-12T05:43:26.243Z,11.20
2023-01-12T05:46:01.495Z,11.20
2023-01-12T05:48:32.295Z,11.20
2023-01-12T05:51:03.493Z,11.20
2023-01-12T05:53:34.479Z,11.20
2023-01-12T05:56:09.379Z,11.20
2023-01-12T05:58:38.212Z,11.20
2023-01-12T06:01:12.040Z,11.20
2023-01-12T06:03:41.061Z,11.20
2023-01-12T06:06:10.287Z,11.20
2023-01-12T06:08:40.701Z,11.20
2023-01-12T06:11:28.945Z,11.10
2023-01-12T06:13:59.329Z,11.20
2023-01-12T06:16:30.996Z,11.20
2023-01-12T06:18:59.977Z,11.20
2023-01-12T06:21:29.128Z,11.20
2023-01-12T06:23:59.645Z,11.10
2023-01-12T06:26:29.207Z,11.10
2023-01-12T06:29:00.363Z,11.10
2023-01-12T06:31:28.807Z,11.10
2023-01-12T06:33:58.289Z,11.10
2023-01-12T06:36:33.243Z,11.10
2023-01-12T06:39:06.644Z,11.10
2023-01-12T06:42:00.007Z,11.10
2023-01-12T06:44:30.811Z,11.10
2023-01-12T06:47:09.235Z,11.20
2023-01-12T06:49:37.588Z,11.20
2023-01-12T06:52:10.421Z,11.20
2023-01-12T06:54:41.018Z,11.20
2023-01-12T06:57:11.384Z,11.20
2023-01-12T06:59:41.992Z,11.20
2023-01-12T07:02:13.534Z,11.20
2023-01-12T07:04:42.213Z,11.20
2023-01-12T07:07:12.337Z,11.20
2023-01-12T07:09:42.071Z,11.20
2023-01-12T07:12:10.662Z,11.20
2023-01-12T07:14:39.026Z,11.20
2023-01-12T07:17:07.362Z,11.20
2023-01-12T07:19:35.744Z,11.20
2023-01-12T07:22:04.390Z,11.40
2023-01-12T07:24:32.692Z,11.20
2023-01-12T07:27:03.546Z,11.00
2023-01-12T07:29:31.941Z,11.20
2023-01-12T07:32:01.728Z,11.20
2023-01-12T07:34:31.328Z,11.20
2023-01-12T07:37:00.437Z,11.20
2023-01-12T07:39:29.308Z,11.20
2023-01-12T07:42:15.101Z,11.20
2023-01-12T07:44:44.872Z,11.20
2023-01-12T07:47:13.129Z,11.20
2023-01-12T07:49:41.496Z,11.20
2023-01-12T07:52:12.272Z,11.20
2023-01-12T07:54:40.760Z,11.20
2023-01-12T07:57:11.779Z,11.20
2023-01-12T07:59:40.157Z,11.20
2023-01-12T08:02:16.729Z,11.20
2023-01-12T08:04:46.087Z,11.20
2023-01-12T08:07:16.351Z,11.20
2023-01-12T08:09:44.858Z,11.20
2023-01-12T08:12:13.070Z,11.20
2023-01-12T08:14:42.991Z,11.20
2023-01-12T08:17:18.439Z,11.20
2023-01-12T08:19:50.706Z,11.20
2023-01-12T08:22:23.644Z,11.20
2023-01-12T08:24:55.559Z,11.20
2023-01-12T08:27:27.086Z,11.20
2023-01-12T08:29:58.790Z,11.20
2023-01-12T08:32:30.206Z,11.30
2023-01-12T08:35:01.845Z,11.30
2023-01-12T08:37:31.788Z,11.30
2023-01-12T08:40:00.431Z,11.30
2023-01-12T08:42:31.606Z,11.30
2023-01-12T08:45:02.133Z,11.30
2023-01-12T08:47:31.848Z,11.30
2023-01-12T08:50:20.668Z,11.30
2023-01-12T08:52:51.355Z,11.30
2023-01-12T08:55:21.023Z,11.30
2023-01-12T08:57:50.126Z,11.30
2023-01-12T09:00:24.087Z,11.30
2023-01-12T09:02:54.445Z,11.30
2023-01-12T09:05:24.136Z,11.30
2023-01-12T09:07:52.748Z,11.30
2023-01-12T09:10:25.733Z,11.30
2023-01-12T09:12:54.785Z,11.30
2023-01-12T09:15:25.167Z,11.30
2023-01-12T09:17:56.298Z,11.40
2023-01-12T09:20:27.828Z,11.30
2023-01-12T09:22:56.641Z,11.30
2023-01-12T09:25:26.191Z,11.10
2023-01-12T09:27:54.793Z,11.30
2023-01-12T09:30:28.488Z,11.40
2023-01-12T09:32:59.324Z,11.40
2023-01-12T09:35:28.812Z,11.40
2023-01-12T09:37:58.083Z,11.40
2023-01-12T09:40:27.605Z,11.40
2023-01-12T09:43:13.692Z,11.40
2023-01-12T09:46:02.507Z,11.40
2023-01-12T09:48:32.579Z,11.40
2023-01-12T09:51:09.390Z,11.40
2023-01-12T09:53:41.954Z,11.40
2023-01-12T09:56:19.323Z,11.40
2023-01-12T09:59:12.048Z,11.50
2023-01-12T10:01:40.471Z,11.50
2023-01-12T10:04:10.289Z,11.40
2023-01-12T10:06:38.887Z,11.50
2023-01-12T10:09:13.675Z,11.40
2023-01-12T10:11:48.932Z,11.50
2023-01-12T10:14:48.616Z,11.50
2023-01-12T10:17:38.536Z,11.50
2023-01-12T10:20:28.582Z,11.50
2023-01-12T10:23:02.181Z,11.50
2023-01-12T10:25:38.640Z,11.50
2023-01-12T10:28:13.521Z,11.50
2023-01-12T10:30:42.461Z,11.50
2023-01-12T10:33:13.046Z,11.50
2023-01-12T10:35:59.292Z,11.60
2023-01-12T10:38:31.481Z,11.50
2023-01-12T10:41:13.543Z,11.60
2023-01-12T10:43:43.516Z,11.60
2023-01-12T10:46:17.317Z,11.60
2023-01-12T10:48:47.213Z,11.50
2023-01-12T10:51:26.923Z,11.60
2023-01-12T10:54:00.860Z,11.60
2023-01-12T10:56:35.526Z,11.60
2023-01-12T10:59:08.242Z,11.60
2023-01-12T11:01:48.202Z,11.60
2023-01-12T11:04:20.764Z,11.60
2023-01-12T11:07:03.465Z,11.60
2023-01-12T11:09:33.735Z,11.60
2023-01-12T11:12:04.289Z,11.60
2023-01-12T11:14:35.975Z,11.60
2023-01-12T11:17:26.709Z,11.60
2023-01-12T11:19:56.542Z,11.60
2023-01-12T11:22:29.341Z,11.60
2023-01-12T11:25:04.377Z,11.70
2023-01-12T11:27:38.663Z,11.60
2023-01-12T11:30:17.256Z,11.60
2023-01-12T11:32:50.877Z,11.60
2023-01-12T11:35:29.417Z,11.60
2023-01-12T11:38:05.214Z,11.70
2023-01-12T11:40:37.629Z,11.70
2023-01-12T11:43:34.539Z,11.70
2023-01-12T11:46:09.662Z,11.70
2023-01-12T11:48:44.550Z,11.70
2023-01-12T11:51:14.353Z,11.70
2023-01-12T11:53:44.938Z,11.70
2023-01-12T11:56:45.669Z,11.70
2023-01-12T11:59:20.898Z,11.70
2023-01-12T12:01:57.645Z,11.70
2023-01-12T12:04:39.441Z,11.70
2023-01-12T12:07:25.150Z,11.70
2023-01-12T12:10:13.300Z,11.70
2023-01-12T12:13:00.322Z,11.70
2023-01-12T12:15:38.973Z,11.70
2023-01-12T12:18:19.575Z,11.70
2023-01-12T12:21:03.980Z,11.70
2023-01-12T12:23:40.690Z,11.70
2023-01-12T12:26:21.219Z,11.70
2023-01-12T12:29:05.780Z,11.70
2023-01-12T12:31:53.138Z,11.70
2023-01-12T12:34:43.252Z,11.70
2023-01-12T12:37:22.330Z,11.80
2023-01-12T12:39:58.554Z,11.80
2023-01-12T12:43:09.467Z,11.70
2023-01-12T12:45:49.214Z,11.70
2023-01-12T12:48:25.253Z,11.80
2023-01-12T12:51:02.316Z,11.70
2023-01-12T12:53:36.404Z,11.70
2023-01-12T12:56:08.354Z,11.80
2023-01-12T12:58:47.036Z,11.80
2023-01-12T13:01:58.562Z,11.80
2023-01-12T13:05:06.728Z,11.80
2023-01-12T13:07:38.531Z,11.80
2023-01-12T13:10:30.388Z,11.80
2023-01-12T13:13:06.266Z,11.80
2023-01-12T13:15:37.956Z,11.80
2023-01-12T13:18:07.579Z,11.80
2023-01-12T13:20:56.549Z,11.80
2023-01-12T13:24:22.202Z,11.80
2023-01-12T13:26:52.600Z,11.80
2023-01-12T13:29:39.648Z,11.80
2023-01-12T13:32:34.681Z,11.80
2023-01-12T13:35:04.584Z,11.80
2023-01-12T13:37:44.731Z,11.80
2023-01-12T13:40:20.699Z,11.80
2023-01-12T13:43:23.273Z,11.80
2023-01-12T13:45:56.949Z,11.80
2023-01-12T13:48:28.918Z,11.90
2023-01-12T13:51:01.122Z,11.80
2023-01-12T13:53:32.565Z,11.80
2023-01-12T13:56:03.351Z,11.80
2023-01-12T13:58:39.854Z,11.80
2023-01-12T14:01:18.406Z,11.80
2023-01-12T14:04:06.864Z,11.80
2023-01-12T14:06:44.859Z,11.80
2023-01-12T14:09:23.436Z,11.80
2023-01-12T14:12:16.283Z,11.80
2023-01-12T14:15:29.591Z,11.90
2023-01-12T14:18:04.431Z,11.80
2023-01-12T14:20:42.643Z,11.80
2023-01-12T14:23:21.014Z,11.90
2023-01-12T14:26:05.598Z,11.80
2023-01-12T14:28:34.735Z,11.80
2023-01-12T14:31:04.098Z,11.80
2023-01-12T14:33:35.541Z,11.90
2023-01-12T14:36:08.388Z,11.90
2023-01-12T14:38:41.314Z,11.90
2023-01-12T14:41:31.248Z,11.90
2023-01-12T14:44:17.210Z,11.90
2023-01-12T14:46:50.165Z,11.90
2023-01-12T14:49:23.254Z,11.90
2023-01-12T14:51:57.112Z,11.90
2023-01-12T14:54:30.720Z,11.90
2023-01-12T14:57:01.875Z,11.90
2023-01-12T14:59:32.879Z,11.90
2023-01-12T15:02:30.949Z,11.90
2023-01-12T15:05:02.795Z,11.90
2023-01-12T15:07:36.083Z,11.90
2023-01-12T15:10:21.806Z,11.90
2023-01-12T15:12:54.218Z,11.90
2023-01-12T15:15:25.365Z,11.90
2023-01-12T15:18:12.963Z,11.90
2023-01-12T15:21:02.096Z,11.90
2023-01-12T15:23:52.553Z,11.90
2023-01-12T15:26:22.364Z,11.90
2023-01-12T15:28:51.102Z,11.90
2023-01-12T15:31:25.751Z,11.90
2023-01-12T15:33:54.613Z,11.90
2023-01-12T15:36:23.560Z,12.00
2023-01-12T15:38:54.200Z,11.90
2023-01-12T15:41:45.338Z,11.90
2023-01-12T15:44:14.853Z,11.90
2023-01-12T15:46:44.378Z,11.90
2023-01-12T15:49:14.563Z,12.00
2023-01-12T15:51:48.255Z,11.90
2023-01-12T15:54:19.448Z,11.90
2023-01-12T15:56:48.318Z,11.90
2023-01-12T15:59:18.071Z,11.90
2023-01-12T16:01:49.453Z,11.90
2023-01-12T16:07:07.667Z,11.90
2023-01-12T16:09:37.763Z,12.00
2023-01-12T16:12:07.689Z,11.90
2023-01-12T16:14:35.994Z,11.90
2023-01-12T16:17:04.647Z,11.90
2023-01-12T16:19:33.746Z,12.00
2023-01-12T16:22:02.100Z,11.90
2023-01-12T16:24:32.411Z,11.90
2023-01-12T16:27:03.454Z,12.00
2023-01-12T16:29:31.875Z,11.90
2023-01-12T16:32:00.526Z,11.90
2023-01-12T16:34:29.363Z,12.00
2023-01-12T16:37:00.459Z,11.90
2023-01-12T16:39:29.715Z,11.90
2023-01-12T16:42:03.648Z,12.00
2023-01-12T16:44:37.287Z,12.00
2023-01-12T16:47:06.101Z,12.00
2023-01-12T16:49:35.955Z,12.00
2023-01-12T16:52:06.719Z,12.00
2023-01-12T16:54:38.626Z,12.00
2023-01-12T16:57:06.951Z,12.00
2023-01-12T16:59:37.266Z,12.00
2023-01-12T17:02:08.115Z,12.00
2023-01-12T17:04:37.726Z,12.00
2023-01-12T17:07:07.636Z,12.00
2023-01-12T17:09:36.585Z,12.00
2023-01-12T17:12:05.546Z,12.00
2023-01-12T17:14:34.814Z,12.00
2023-01-12T17:17:07.331Z,12.00
2023-01-12T17:19:37.820Z,12.00
2023-01-12T17:22:08.336Z,12.00
2023-01-12T17:24:39.725Z,12.00
2023-01-12T17:27:09.634Z,12.10
2023-01-12T17:29:38.140Z,12.00
2023-01-12T17:32:08.704Z,12.00
2023-01-12T17:34:38.758Z,12.10
2023-01-12T17:37:08.811Z,12.00
2023-01-12T17:39:39.770Z,12.00
2023-01-12T17:42:25.693Z,12.00
2023-01-12T17:44:54.018Z,12.10
2023-01-12T17:47:24.529Z,12.00
2023-01-12T17:49:54.261Z,12.00
2023-01-12T17:52:22.689Z,12.10
2023-01-12T17:54:51.338Z,12.00
2023-01-12T17:57:19.706Z,12.00
2023-01-12T17:59:49.944Z,12.00
2023-01-12T18:02:19.192Z,12.00
2023-01-12T18:04:49.052Z,12.00
2023-01-12T18:07:17.474Z,12.00
2023-01-12T18:09:45.697Z,12.00
2023-01-12T18:12:16.554Z,12.10
2023-01-12T18:14:44.878Z,12.00
2023-01-12T18:17:13.273Z,12.10
2023-01-12T18:19:42.463Z,12.00
2023-01-12T18:22:12.284Z,12.10
2023-01-12T18:24:40.951Z,12.10
2023-01-12T18:27:09.508Z,12.10
2023-01-12T18:29:38.336Z,12.10
2023-01-12T18:32:07.678Z,12.10
2023-01-12T18:34:36.508Z,12.10
2023-01-12T18:37:05.049Z,12.10
2023-01-12T18:39:35.060Z,12.10
2023-01-12T18:42:20.954Z,12.00
2023-01-12T18:44:50.076Z,12.10
2023-01-12T18:47:35.804Z,12.00
2023-01-12T18:50:37.470Z,12.10
2023-01-12T18:53:28.510Z,12.10
2023-01-12T18:55:58.786Z,12.10
2023-01-12T18:58:28.820Z,12.10
2023-01-12T19:00:58.710Z,12.10
2023-01-12T19:03:27.075Z,12.10
2023-01-12T19:06:00.069Z,12.00
2023-01-12T19:08:47.322Z,12.10
2023-01-12T19:11:17.713Z,12.00
2023-01-12T19:14:03.865Z,12.10
2023-01-12T19:16:49.356Z,12.00
2023-01-12T19:19:22.743Z,12.10
2023-01-12T19:22:08.654Z,12.10
2023-01-12T19:24:54.392Z,12.10
2023-01-12T19:27:41.867Z,12.10
2023-01-12T19:30:12.154Z,12.10
2023-01-12T19:32:40.868Z,12.10
2023-01-12T19:35:11.762Z,12.10
2023-01-12T19:37:42.532Z,12.10
2023-01-12T19:40:18.668Z,12.10
2023-01-12T19:43:15.149Z,12.10
2023-01-12T19:45:48.047Z,12.30
2023-01-12T19:48:17.746Z,12.10
2023-01-12T19:50:46.602Z,12.10
2023-01-12T19:53:18.576Z,12.10
2023-01-12T19:55:47.546Z,12.10
2023-01-12T19:58:17.427Z,12.10
2023-01-12T20:00:46.519Z,12.10
2023-01-12T20:03:16.233Z,12.10
2023-01-12T20:05:47.418Z,12.10
2023-01-12T20:08:16.560Z,12.10
2023-01-12T20:10:45.562Z,12.10
2023-01-12T20:13:14.767Z,12.10
2023-01-12T20:15:44.836Z,12.10
2023-01-12T20:18:13.908Z,12.10
2023-01-12T20:20:43.413Z,12.10
2023-01-12T20:23:12.661Z,12.10
2023-01-12T20:25:41.745Z,12.10
2023-01-12T20:28:13.125Z,12.10
2023-01-12T20:30:46.789Z,12.10
2023-01-12T20:33:16.260Z,12.10
2023-01-12T20:35:51.210Z,12.10
2023-01-12T20:38:20.527Z,12.10
2023-01-12T20:40:49.655Z,12.10
2023-01-12T20:43:18.758Z,12.10
2023-01-12T20:45:50.869Z,12.10
2023-01-12T20:48:19.649Z,12.10
2023-01-12T20:50:49.287Z,12.20
2023-01-12T20:53:18.963Z,12.10
2023-01-12T20:55:51.230Z,12.10
2023-01-12T20:58:20.335Z,12.10
2023-01-12T21:00:51.041Z,12.10
2023-01-12T21:03:20.276Z,12.10
2023-01-12T21:05:51.989Z,12.10
2023-01-12T21:08:21.530Z,12.10
2023-01-12T21:10:51.389Z,12.10
2023-01-12T21:13:20.936Z,12.10
2023-01-12T21:15:58.372Z,12.10
2023-01-12T21:18:27.012Z,12.10
2023-01-12T21:20:55.863Z,12.10
2023-01-12T21:23:24.278Z,12.10
2023-01-12T21:25:52.806Z,12.10
2023-01-12T21:28:21.170Z,12.10
2023-01-12T21:30:51.076Z,12.10
2023-01-12T21:33:19.698Z,12.10
2023-01-12T21:35:55.922Z,12.10
2023-01-12T21:38:25.043Z,12.10
2023-01-12T21:40:53.668Z,12.40
2023-01-12T21:43:22.216Z,12.00
2023-01-12T21:45:53.863Z,12.10
2023-01-12T21:48:24.270Z,12.10
2023-01-12T21:50:52.887Z,12.10
2023-01-12T21:53:23.281Z,12.20
2023-01-12T21:55:56.810Z,12.10
2023-01-12T21:58:25.658Z,12.10
2023-01-12T22:00:56.151Z,12.20
2023-01-12T22:03:26.073Z,12.10
2023-01-12T22:05:54.808Z,12.20
2023-01-12T22:08:23.641Z,12.20
2023-01-12T22:10:52.221Z,12.10
2023-01-12T22:13:20.515Z,12.20
2023-01-12T22:15:51.024Z,12.10
2023-01-12T22:18:21.011Z,12.20
2023-01-12T22:20:50.938Z,12.20
2023-01-12T22:23:19.291Z,12.20
2023-01-12T22:25:47.545Z,12.20
2023-01-12T22:28:15.885Z,12.10
2023-01-12T22:30:44.838Z,12.10
2023-01-12T22:33:13.315Z,12.20
2023-01-12T22:35:44.161Z,12.10
2023-01-12T22:38:12.611Z,12.20
2023-01-12T22:40:41.078Z,12.20
2023-01-12T22:43:26.867Z,12.20
2023-01-12T22:45:57.923Z,12.20
2023-01-12T22:48:26.860Z,12.20
2023-01-12T22:50:57.018Z,12.20
2023-01-12T22:53:25.817Z,12.20
2023-01-12T22:55:54.207Z,12.20
2023-01-12T22:58:22.460Z,12.20
2023-01-12T23:00:51.996Z,12.20
2023-01-12T23:03:20.617Z,12.20
2023-01-12T23:05:55.900Z,12.20
2023-01-12T23:08:26.416Z,12.20
2023-01-12T23:11:04.184Z,12.20
2023-01-12T23:13:32.477Z,12.20
2023-01-12T23:16:05.182Z,12.20
2023-01-12T23:18:35.582Z,12.20
2023-01-12T23:21:11.190Z,12.20
2023-01-12T23:23:42.260Z,12.20
2023-01-12T23:26:12.225Z,12.20
2023-01-12T23:28:43.105Z,12.20
2023-01-12T23:31:13.919Z,12.20
2023-01-12T23:33:43.549Z,12.20
2023-01-12T23:36:14.359Z,12.20
2023-01-12T23:38:44.124Z,12.20
2023-01-12T23:41:14.104Z,12.20
2023-01-12T23:43:43.126Z,12.20
2023-01-12T23:46:12.097Z,12.20
2023-01-12T23:48:41.814Z,12.20
2023-01-12T23:51:11.005Z,12.20
2023-01-12T23:53:39.341Z,12.20
2023-01-12T23:56:10.973Z,12.20
2023-01-12T23:58:39.376Z,12.10
